createdAt,value
2018-03-15T00:00:35.624Z,20.05
2018-03-15T00:03:03.058Z,22.40
2018-03-15T00:05:30.460Z,21.25
2018-03-15T00:07:57.878Z,22.65
2018-03-15T00:10:25.292Z,22.55
2018-03-15T00:12:52.713Z,23.10
2018-03-15T00:15:28.669Z,23.27
2018-03-15T00:18:52.902Z,21.80
2018-03-15T00:21:20.325Z,23.40
2018-03-15T00:23:47.736Z,24.60
2018-03-15T00:26:15.145Z,26.08
2018-03-15T00:28:42.577Z,23.75
2018-03-15T00:31:09.976Z,27.08
2018-03-15T00:33:37.389Z,23.05
2018-03-15T00:36:04.813Z,24.45
2018-03-15T00:38:32.223Z,25.80
2018-03-15T00:40:59.628Z,26.80
2018-03-15T00:43:27.058Z,25.58
2018-03-15T00:45:54.477Z,26.42
2018-03-15T00:48:21.880Z,26.12
2018-03-15T00:50:49.307Z,27.20
2018-03-15T00:53:16.716Z,26.23
2018-03-15T00:55:44.120Z,25.90
2018-03-15T00:58:11.533Z,26.55
2018-03-15T01:00:38.945Z,26.90
2018-03-15T01:03:06.364Z,28.08
2018-03-15T01:05:33.814Z,27.95
2018-03-15T01:08:01.221Z,26.35
2018-03-15T01:10:28.630Z,30.77
2018-03-15T01:12:56.049Z,26.65
2018-03-15T01:15:23.453Z,28.67
2018-03-15T01:17:50.866Z,27.90
2018-03-15T01:20:18.294Z,26.92
2018-03-15T01:22:45.709Z,30.08
2018-03-15T01:25:13.108Z,29.33
2018-03-15T01:27:40.537Z,29.00
2018-03-15T01:30:08.030Z,27.80
2018-03-15T01:32:35.432Z,29.98
2018-03-15T01:35:02.854Z,32.17
2018-03-15T01:37:30.273Z,30.73
2018-03-15T01:39:57.677Z,31.60
2018-03-15T01:42:25.093Z,29.83
2018-03-15T01:44:52.513Z,29.92
2018-03-15T01:47:20.819Z,29.83
2018-03-15T01:49:48.263Z,31.27
2018-03-15T01:52:15.662Z,31.50
2018-03-15T01:54:43.097Z,31.55
2018-03-15T01:57:10.575Z,31.92
2018-03-15T01:59:37.978Z,31.65
2018-03-15T02:02:05.377Z,32.67
2018-03-15T02:04:32.797Z,31.25
2018-03-15T02:07:00.204Z,31.98
2018-03-15T02:09:27.618Z,31.92
2018-03-15T02:11:55.044Z,30.98
2018-03-15T02:14:22.443Z,32.75
2018-03-15T02:16:49.857Z,32.28
2018-03-15T02:19:17.277Z,33.17
2018-03-15T02:21:44.689Z,30.88
2018-03-15T02:24:12.100Z,32.75
2018-03-15T02:26:39.518Z,31.50
2018-03-15T02:29:06.924Z,34.67
2018-03-15T02:31:34.330Z,32.45
2018-03-15T02:34:01.752Z,33.85
2018-03-15T02:36:29.158Z,34.08
2018-03-15T02:38:56.570Z,35.05
2018-03-15T02:41:23.989Z,35.10
2018-03-15T02:43:51.401Z,34.92
2018-03-15T02:46:18.808Z,35.50
2018-03-15T02:48:46.226Z,35.55
2018-03-15T02:51:13.637Z,32.47
2018-03-15T02:53:41.045Z,33.65
2018-03-15T02:56:08.464Z,35.95
2018-03-15T02:58:35.893Z,34.97
2018-03-15T03:01:03.304Z,35.33
2018-03-15T03:03:30.716Z,33.90
2018-03-15T03:05:58.119Z,35.33
2018-03-15T03:08:25.535Z,34.65
2018-03-15T03:10:52.949Z,36.38
2018-03-15T03:13:20.351Z,36.35
2018-03-15T03:15:47.762Z,35.28
2018-03-15T03:18:15.185Z,35.50
2018-03-15T03:20:42.630Z,36.85
2018-03-15T03:23:10.032Z,37.70
2018-03-15T03:25:37.449Z,37.00
2018-03-15T03:28:04.862Z,38.00
2018-03-15T03:30:32.266Z,37.65
2018-03-15T03:32:59.693Z,37.50
2018-03-15T03:35:27.092Z,37.97
2018-03-15T03:37:54.497Z,37.78
2018-03-15T03:40:21.916Z,38.53
2018-03-15T03:42:49.316Z,37.50
2018-03-15T03:45:16.719Z,37.20
2018-03-15T03:47:44.160Z,37.85
2018-03-15T03:50:11.564Z,38.08
2018-03-15T03:52:39.961Z,39.40
2018-03-15T03:55:07.386Z,39.67
2018-03-15T03:57:34.804Z,40.20
2018-03-15T04:00:02.204Z,40.33
2018-03-15T04:02:29.631Z,41.35
2018-03-15T04:04:57.040Z,40.05
2018-03-15T04:07:24.444Z,43.70
2018-03-15T04:09:51.871Z,42.10
2018-03-15T04:12:19.282Z,41.03
2018-03-15T04:14:46.696Z,43.42
2018-03-15T04:17:14.128Z,40.17
2018-03-15T04:19:41.547Z,41.15
2018-03-15T04:22:08.949Z,40.33
2018-03-15T04:24:36.376Z,43.20
2018-03-15T04:27:03.788Z,40.70
2018-03-15T04:29:31.201Z,37.70
2018-03-15T04:31:58.629Z,39.83
2018-03-15T04:34:26.051Z,38.65
2018-03-15T04:36:53.446Z,39.67
2018-03-15T04:39:20.870Z,41.70
2018-03-15T04:41:48.268Z,41.10
2018-03-15T04:44:15.669Z,39.53
2018-03-15T04:46:43.103Z,40.72
2018-03-15T04:49:10.508Z,44.80
2018-03-15T04:51:37.914Z,42.72
2018-03-15T04:54:05.334Z,43.67
2018-03-15T04:56:32.743Z,44.40
2018-03-15T04:59:00.143Z,44.50
2018-03-15T05:01:27.579Z,45.15
2018-03-15T05:03:54.977Z,42.83
2018-03-15T05:06:22.380Z,44.83
2018-03-15T05:08:49.828Z,43.45
2018-03-15T05:11:17.237Z,43.63
2018-03-15T05:13:44.643Z,42.50
2018-03-15T05:16:12.327Z,42.42
2018-03-15T05:18:39.723Z,43.83
2018-03-15T05:21:07.134Z,43.75
2018-03-15T05:23:34.547Z,40.33
2018-03-15T05:26:01.959Z,39.97
2018-03-15T05:28:29.368Z,39.08
2018-03-15T05:30:56.794Z,40.80
2018-03-15T05:33:24.207Z,41.70
2018-03-15T05:35:51.608Z,42.55
2018-03-15T05:38:19.033Z,42.35
2018-03-15T05:40:46.448Z,39.50
2018-03-15T05:43:13.860Z,42.17
2018-03-15T05:45:41.276Z,41.10
2018-03-15T05:48:08.680Z,37.75
2018-03-15T05:50:36.092Z,39.28
2018-03-15T05:53:03.521Z,38.38
2018-03-15T05:55:30.924Z,38.40
2018-03-15T05:57:58.328Z,38.72
2018-03-15T06:00:25.756Z,35.15
2018-03-15T06:02:53.162Z,36.22
2018-03-15T06:05:20.564Z,36.15
2018-03-15T06:07:47.988Z,34.33
2018-03-15T06:10:15.393Z,34.10
2018-03-15T06:12:42.892Z,33.72
2018-03-15T06:15:10.306Z,33.15
2018-03-15T06:17:37.725Z,33.33
2018-03-15T06:20:05.116Z,35.45
2018-03-15T06:22:32.560Z,34.15
2018-03-15T06:24:59.960Z,30.50
2018-03-15T06:27:27.413Z,35.00
2018-03-15T06:29:54.840Z,33.38
2018-03-15T06:32:22.250Z,34.33
2018-03-15T06:34:49.649Z,31.15
2018-03-15T06:37:17.076Z,33.42
2018-03-15T06:39:44.480Z,32.15
2018-03-15T06:42:11.910Z,32.40
2018-03-15T06:44:39.327Z,34.45
2018-03-15T06:47:06.735Z,32.92
2018-03-15T06:49:34.146Z,32.25
2018-03-15T06:52:01.577Z,32.08
2018-03-15T06:54:28.980Z,29.95
2018-03-15T06:56:56.384Z,30.85
2018-03-15T06:59:23.804Z,28.02
2018-03-15T07:01:51.213Z,26.75
2018-03-15T07:04:18.620Z,26.35
2018-03-15T07:06:46.094Z,25.23
2018-03-15T07:09:13.489Z,25.30
2018-03-15T07:11:40.910Z,25.92
2018-03-15T07:14:08.333Z,26.00
2018-03-15T07:16:35.749Z,25.57
2018-03-15T07:19:03.174Z,26.00
2018-03-15T07:21:30.589Z,25.62
2018-03-15T07:23:57.976Z,25.57
2018-03-15T07:26:25.377Z,23.20
2018-03-15T07:28:52.789Z,22.97
2018-03-15T07:31:20.193Z,24.67
2018-03-15T07:33:47.605Z,23.63
2018-03-15T07:36:15.021Z,23.47
2018-03-15T07:38:42.414Z,24.70
2018-03-15T07:41:09.812Z,24.43
2018-03-15T07:43:37.249Z,23.90
2018-03-15T07:46:04.668Z,25.00
2018-03-15T07:48:32.059Z,23.40
2018-03-15T07:50:59.485Z,26.10
2018-03-15T07:53:26.881Z,26.27
2018-03-15T07:55:54.315Z,25.88
2018-03-15T07:58:21.725Z,26.60
2018-03-15T08:00:49.129Z,25.90
2018-03-15T08:03:16.523Z,28.73
2018-03-15T08:05:43.956Z,25.75
2018-03-15T08:08:11.400Z,27.50
2018-03-15T08:10:38.785Z,24.50
2018-03-15T08:13:06.230Z,25.77
2018-03-15T08:15:33.628Z,25.60
2018-03-15T08:18:01.039Z,24.73
2018-03-15T08:20:28.473Z,23.13
2018-03-15T08:22:55.914Z,24.60
2018-03-15T08:25:23.312Z,23.63
2018-03-15T08:27:50.724Z,23.60
2018-03-15T08:30:18.127Z,23.87
2018-03-15T08:32:45.521Z,23.83
2018-03-15T08:35:12.936Z,24.97
2018-03-15T08:37:40.333Z,24.03
2018-03-15T08:40:07.749Z,24.60
2018-03-15T08:42:35.155Z,24.80
2018-03-15T08:45:02.562Z,25.77
2018-03-15T08:47:29.961Z,24.87
2018-03-15T08:49:57.372Z,23.87
2018-03-15T08:52:24.770Z,22.50
2018-03-15T08:54:52.165Z,24.67
2018-03-15T08:57:19.617Z,21.47
2018-03-15T08:59:46.985Z,22.53
2018-03-15T09:02:14.426Z,21.93
2018-03-15T09:04:41.820Z,20.40
2018-03-15T09:07:09.195Z,18.93
2018-03-15T09:09:36.598Z,19.93
2018-03-15T09:12:04.002Z,21.07
2018-03-15T09:14:31.539Z,21.17
2018-03-15T09:16:59.007Z,21.77
2018-03-15T09:19:26.364Z,20.67
2018-03-15T09:21:53.796Z,20.47
2018-03-15T09:24:21.157Z,19.57
2018-03-15T09:26:48.568Z,20.50
2018-03-15T09:29:15.973Z,20.57
2018-03-15T09:31:43.372Z,21.57
2018-03-15T09:34:10.784Z,21.13
2018-03-15T09:36:38.184Z,21.20
2018-03-15T09:39:05.588Z,21.30
2018-03-15T09:41:33.000Z,20.73
2018-03-15T09:44:00.407Z,19.83
2018-03-15T09:46:27.813Z,20.33
2018-03-15T09:48:55.228Z,20.20
2018-03-15T09:51:22.628Z,20.13
2018-03-15T09:53:50.036Z,19.80
2018-03-15T09:56:17.460Z,19.53
2018-03-15T09:58:44.871Z,19.40
2018-03-15T10:01:12.287Z,18.63
2018-03-15T10:03:39.697Z,18.87
2018-03-15T10:06:07.122Z,16.83
2018-03-15T10:08:34.521Z,16.90
2018-03-15T10:11:01.940Z,17.70
2018-03-15T10:13:29.344Z,19.50
2018-03-15T10:15:56.746Z,17.33
2018-03-15T10:18:24.168Z,16.23
2018-03-15T10:20:51.572Z,17.63
2018-03-15T10:23:18.977Z,17.97
2018-03-15T10:25:46.424Z,17.43
2018-03-15T10:28:13.826Z,18.10
2018-03-15T10:30:41.249Z,18.00
2018-03-15T10:33:14.183Z,17.20
2018-03-15T10:35:41.584Z,17.50
2018-03-15T10:38:08.995Z,16.07
2018-03-15T10:40:36.429Z,15.53
2018-03-15T10:43:03.832Z,17.27
2018-03-15T10:45:31.340Z,15.43
2018-03-15T10:47:58.804Z,15.37
2018-03-15T10:50:26.170Z,16.23
2018-03-15T10:52:53.582Z,16.40
2018-03-15T10:55:21.009Z,15.10
2018-03-15T10:57:48.442Z,15.43
2018-03-15T11:00:15.846Z,15.17
2018-03-15T11:02:47.137Z,16.27
2018-03-15T11:05:20.172Z,17.40
2018-03-15T11:07:53.151Z,15.97
2018-03-15T11:10:20.562Z,14.87
2018-03-15T11:12:47.983Z,17.70
2018-03-15T11:15:15.396Z,17.30
2018-03-15T11:17:42.800Z,17.67
2018-03-15T11:20:10.205Z,16.30
2018-03-15T11:22:37.625Z,17.50
2018-03-15T11:25:05.026Z,17.30
2018-03-15T11:27:32.431Z,17.30
2018-03-15T11:29:59.848Z,16.80
2018-03-15T11:32:27.241Z,17.30
2018-03-15T11:34:54.644Z,18.03
2018-03-15T11:37:22.065Z,16.37
2018-03-15T11:39:49.470Z,17.40
2018-03-15T11:42:16.879Z,17.10
2018-03-15T11:44:44.297Z,16.60
2018-03-15T11:47:11.701Z,15.80
2018-03-15T11:49:39.104Z,16.67
2018-03-15T11:52:06.531Z,17.23
2018-03-15T11:54:33.945Z,18.20
2018-03-15T11:57:01.354Z,17.00
2018-03-15T11:59:28.784Z,16.73
2018-03-15T12:01:56.232Z,17.27
2018-03-15T12:04:23.641Z,18.33
2018-03-15T12:06:51.056Z,17.63
2018-03-15T12:09:18.467Z,17.63
2018-03-15T12:11:45.873Z,18.83
2018-03-15T12:14:13.308Z,18.73
2018-03-15T12:16:40.705Z,19.70
2018-03-15T12:19:08.108Z,17.83
2018-03-15T12:21:35.525Z,18.57
2018-03-15T12:24:02.936Z,19.50
2018-03-15T12:26:30.336Z,17.70
2018-03-15T12:28:57.788Z,18.77
2018-03-15T12:31:25.197Z,18.83
2018-03-15T12:33:52.589Z,18.33
2018-03-15T12:36:20.014Z,17.40
2018-03-15T12:38:47.430Z,18.47
2018-03-15T12:41:14.825Z,18.97
2018-03-15T12:43:42.239Z,18.20
2018-03-15T12:46:09.641Z,17.87
2018-03-15T12:48:37.040Z,18.70
2018-03-15T12:51:04.462Z,18.83
2018-03-15T12:53:31.881Z,17.80
2018-03-15T12:55:59.280Z,16.80
2018-03-15T12:58:26.700Z,17.00
2018-03-15T13:00:54.101Z,15.87
2018-03-15T13:03:21.492Z,15.07
2018-03-15T13:05:48.913Z,15.30
2018-03-15T13:08:16.317Z,14.87
2018-03-15T13:10:43.720Z,15.87
2018-03-15T13:13:11.132Z,15.53
2018-03-15T13:15:38.529Z,15.80
2018-03-15T13:18:05.980Z,15.90
2018-03-15T13:20:33.405Z,15.90
2018-03-15T13:23:00.806Z,16.27
2018-03-15T13:25:28.201Z,15.10
2018-03-15T13:27:55.632Z,14.43
2018-03-15T13:30:23.036Z,14.63
2018-03-15T13:32:50.448Z,15.40
2018-03-15T13:35:17.869Z,17.90
2018-03-15T13:37:45.281Z,16.50
2018-03-15T13:40:12.705Z,17.80
2018-03-15T13:42:40.124Z,16.90
2018-03-15T13:45:07.629Z,16.67
2018-03-15T13:47:35.098Z,15.80
2018-03-15T13:50:02.509Z,16.80
2018-03-15T13:52:29.913Z,16.77
2018-03-15T13:54:57.333Z,15.77
2018-03-15T13:57:24.757Z,17.70
2018-03-15T13:59:52.152Z,18.20
2018-03-15T14:02:19.556Z,18.53
2018-03-15T14:04:46.968Z,16.43
2018-03-15T14:07:14.447Z,17.03
2018-03-15T14:09:41.838Z,18.13
2018-03-15T14:12:09.252Z,19.80
2018-03-15T14:14:36.662Z,17.80
2018-03-15T14:17:04.060Z,19.03
2018-03-15T14:19:31.485Z,18.83
2018-03-15T14:21:58.890Z,19.17
2018-03-15T14:24:26.287Z,18.97
2018-03-15T14:26:53.706Z,20.30
2018-03-15T14:29:21.195Z,21.30
2018-03-15T14:31:48.524Z,21.33
2018-03-15T14:34:15.996Z,20.77
2018-03-15T14:36:43.403Z,20.00
2018-03-15T14:39:10.794Z,19.70
2018-03-15T14:41:38.204Z,20.93
2018-03-15T14:44:05.615Z,22.40
2018-03-15T14:46:33.020Z,20.20
2018-03-15T14:49:00.424Z,20.40
2018-03-15T14:51:27.894Z,20.57
2018-03-15T14:53:55.328Z,21.90
2018-03-15T14:56:22.749Z,20.97
2018-03-15T14:58:50.153Z,19.77
2018-03-15T15:01:17.676Z,19.20
2018-03-15T15:03:45.274Z,18.70
2018-03-15T15:06:12.886Z,21.87
2018-03-15T15:08:40.301Z,21.00
2018-03-15T15:11:07.895Z,20.90
2018-03-15T15:13:35.305Z,20.13
2018-03-15T15:16:02.781Z,19.93
2018-03-15T15:18:30.233Z,20.70
2018-03-15T15:20:57.733Z,21.00
2018-03-15T15:23:25.132Z,22.93
2018-03-15T15:25:52.535Z,24.00
2018-03-15T15:28:19.945Z,22.00
2018-03-15T15:30:47.348Z,22.77
2018-03-15T15:33:14.774Z,21.17
2018-03-15T15:35:42.177Z,22.73
2018-03-15T15:38:09.585Z,22.40
2018-03-15T15:40:37.003Z,21.97
2018-03-15T15:43:04.408Z,24.10
2018-03-15T15:45:31.816Z,23.57
2018-03-15T15:47:59.237Z,21.27
2018-03-15T15:50:26.637Z,22.53
2018-03-15T15:52:54.038Z,22.07
2018-03-15T15:55:21.458Z,22.63
2018-03-15T15:57:48.861Z,21.77
2018-03-15T16:00:16.258Z,20.70
2018-03-15T16:02:43.679Z,21.20
2018-03-15T16:05:11.346Z,20.80
2018-03-15T16:07:38.737Z,22.20
2018-03-15T16:10:06.165Z,20.67
2018-03-15T16:12:33.572Z,20.67
2018-03-15T16:15:00.966Z,21.30
2018-03-15T16:17:28.385Z,23.73
2018-03-15T16:19:55.790Z,23.27
2018-03-15T16:22:23.201Z,20.97
2018-03-15T16:24:50.622Z,20.87
2018-03-15T16:27:18.045Z,23.43
2018-03-15T16:29:45.532Z,20.93
2018-03-15T16:32:12.969Z,21.77
2018-03-15T16:34:40.363Z,20.73
2018-03-15T16:37:07.788Z,21.40
2018-03-15T16:39:35.211Z,21.20
2018-03-15T16:42:02.620Z,20.00
2018-03-15T16:44:30.017Z,20.40
2018-03-15T16:46:57.454Z,22.97
2018-03-15T16:49:24.878Z,19.83
2018-03-15T16:51:52.300Z,22.40
2018-03-15T16:54:19.704Z,21.10
2018-03-15T16:56:47.156Z,20.97
2018-03-15T16:59:14.523Z,19.87
2018-03-15T17:01:42.524Z,21.10
2018-03-15T17:04:09.919Z,20.07
2018-03-15T17:06:37.327Z,19.70
2018-03-15T17:09:04.751Z,19.70
2018-03-15T17:11:32.172Z,19.20
2018-03-15T17:13:59.622Z,21.47
2018-03-15T17:16:27.111Z,19.90
2018-03-15T17:18:54.518Z,19.37
2018-03-15T17:21:21.927Z,20.93
2018-03-15T17:23:49.366Z,20.77
2018-03-15T17:26:16.803Z,21.80
2018-03-15T17:28:44.288Z,19.37
2018-03-15T17:31:11.824Z,20.67
2018-03-15T17:33:39.245Z,20.30
2018-03-15T17:36:06.652Z,22.13
2018-03-15T17:38:34.096Z,20.47
2018-03-15T17:41:01.506Z,20.83
2018-03-15T17:43:28.904Z,22.87
2018-03-15T17:45:56.525Z,21.63
2018-03-15T17:48:23.944Z,22.73
2018-03-15T17:50:51.451Z,22.40
2018-03-15T17:53:18.878Z,20.80
2018-03-15T17:55:46.298Z,21.00
2018-03-15T17:58:13.723Z,20.50
2018-03-15T18:00:41.399Z,21.23
2018-03-15T18:03:08.919Z,21.23
2018-03-15T18:05:36.404Z,21.10
2018-03-15T18:08:03.903Z,21.07
2018-03-15T18:10:31.453Z,22.57
2018-03-15T18:12:59.200Z,21.20
2018-03-15T18:15:27.051Z,23.00
2018-03-15T18:17:54.867Z,22.30
2018-03-15T18:20:23.300Z,20.40
2018-03-15T18:22:51.663Z,21.07
2018-03-15T18:25:19.789Z,20.50
2018-03-15T18:27:48.103Z,22.27
2018-03-15T18:30:16.518Z,21.50
2018-03-15T18:32:44.844Z,21.67
2018-03-15T18:35:13.259Z,22.00
2018-03-15T18:37:41.696Z,21.43
2018-03-15T18:40:10.134Z,20.23
2018-03-15T18:42:38.471Z,19.47
2018-03-15T18:45:06.968Z,19.73
2018-03-15T18:47:35.396Z,19.77
2018-03-15T18:50:03.846Z,20.17
2018-03-15T18:52:32.292Z,20.90
2018-03-15T18:55:00.601Z,20.00
2018-03-15T18:57:28.962Z,22.20
2018-03-15T18:59:57.502Z,20.63
2018-03-15T19:02:25.845Z,20.80
2018-03-15T19:04:54.134Z,21.37
2018-03-15T19:07:22.511Z,22.10
2018-03-15T19:09:50.788Z,20.97
2018-03-15T19:12:19.245Z,21.00
2018-03-15T19:14:47.653Z,22.53
2018-03-15T19:17:16.070Z,21.07
2018-03-15T19:19:44.409Z,21.03
2018-03-15T19:22:12.836Z,19.90
2018-03-15T19:24:41.190Z,21.33
2018-03-15T19:27:09.528Z,22.87
2018-03-15T19:29:37.968Z,22.27
2018-03-15T19:32:06.294Z,23.10
2018-03-15T19:34:34.726Z,23.33
2018-03-15T19:37:03.170Z,22.27
2018-03-15T19:39:31.580Z,23.70
2018-03-15T19:41:59.993Z,23.57
2018-03-15T19:44:28.486Z,21.03
2018-03-15T19:46:56.812Z,24.30
2018-03-15T19:49:25.124Z,23.27
2018-03-15T19:51:53.539Z,22.50
2018-03-15T19:54:22.041Z,22.40
2018-03-15T19:56:50.424Z,23.27
2018-03-15T19:59:18.943Z,24.00
2018-03-15T20:01:47.336Z,23.50
2018-03-15T20:04:15.637Z,23.47
2018-03-15T20:06:44.081Z,23.50
2018-03-15T20:09:12.374Z,23.60
2018-03-15T20:11:40.688Z,22.37
2018-03-15T20:14:09.305Z,18.37
2018-03-15T20:16:37.684Z,17.87
2018-03-15T20:19:11.491Z,17.10
2018-03-15T20:21:40.922Z,18.50
2018-03-15T20:24:14.776Z,18.67
2018-03-15T20:26:43.127Z,18.40
2018-03-15T20:29:11.418Z,17.53
2018-03-15T20:31:42.372Z,18.87
2018-03-15T20:34:12.126Z,17.43
2018-03-15T20:36:40.641Z,17.97
2018-03-15T20:39:15.604Z,17.60
2018-03-15T20:41:44.060Z,17.30
2018-03-15T20:44:12.386Z,16.40
2018-03-15T20:46:46.336Z,15.30
2018-03-15T20:49:15.590Z,15.60
2018-03-15T20:51:43.908Z,14.80
2018-03-15T20:54:12.323Z,15.27
2018-03-15T20:56:40.638Z,15.30
2018-03-15T20:59:09.011Z,15.77
2018-03-15T21:01:37.415Z,14.77
2018-03-15T21:04:05.739Z,15.40
2018-03-15T21:06:34.023Z,15.73
2018-03-15T21:09:02.466Z,16.70
2018-03-15T21:11:30.764Z,14.50
2018-03-15T21:13:59.062Z,15.50
2018-03-15T21:16:27.459Z,15.70
2018-03-15T21:18:55.737Z,16.40
2018-03-15T21:21:24.025Z,15.50
2018-03-15T21:23:52.459Z,15.30
2018-03-15T21:26:21.782Z,16.27
2018-03-15T21:28:50.144Z,16.30
2018-03-15T21:31:18.536Z,15.43
2018-03-15T21:33:46.831Z,16.30
2018-03-15T21:36:15.055Z,16.93
2018-03-15T21:38:43.595Z,17.13
2018-03-15T21:41:11.855Z,16.47
2018-03-15T21:43:40.134Z,17.00
2018-03-15T21:46:08.600Z,17.10
2018-03-15T21:48:36.786Z,17.60
2018-03-15T21:51:05.006Z,17.23
2018-03-15T21:53:33.351Z,18.00
2018-03-15T21:56:01.523Z,18.60
2018-03-15T21:58:29.650Z,16.73
2018-03-15T22:00:57.484Z,16.87
2018-03-15T22:03:25.050Z,16.63
2018-03-15T22:05:52.469Z,16.03
2018-03-15T22:08:19.881Z,15.50
2018-03-15T22:10:47.295Z,15.90
2018-03-15T22:13:14.680Z,16.07
2018-03-15T22:15:42.103Z,15.30
2018-03-15T22:18:09.488Z,15.13
2018-03-15T22:20:36.893Z,16.67
2018-03-15T22:23:04.307Z,17.27
2018-03-15T22:25:31.753Z,18.40
2018-03-15T22:27:59.107Z,16.83
2018-03-15T22:30:26.543Z,18.03
2018-03-15T22:32:53.941Z,15.73
2018-03-15T22:35:21.342Z,17.50
2018-03-15T22:37:48.754Z,16.77
2018-03-15T22:40:16.161Z,17.00
2018-03-15T22:42:43.556Z,17.10
2018-03-15T22:45:10.968Z,16.37
2018-03-15T22:47:38.372Z,18.53
2018-03-15T22:50:05.780Z,18.50
2018-03-15T22:52:33.184Z,18.77
2018-03-15T22:55:00.596Z,16.50
2018-03-15T22:57:27.984Z,16.20
2018-03-15T22:59:55.401Z,16.53
2018-03-15T23:02:22.794Z,17.07
2018-03-15T23:04:50.191Z,16.43
2018-03-15T23:07:17.604Z,17.70
2018-03-15T23:09:44.995Z,17.67
2018-03-15T23:12:12.417Z,17.20
2018-03-15T23:14:39.825Z,17.60
2018-03-15T23:17:07.227Z,18.20
2018-03-15T23:19:34.621Z,17.93
2018-03-15T23:22:02.128Z,17.97
2018-03-15T23:24:29.537Z,18.50
2018-03-15T23:26:56.937Z,18.60
2018-03-15T23:29:24.521Z,18.13
2018-03-15T23:31:51.909Z,17.37
2018-03-15T23:34:19.344Z,17.53
2018-03-15T23:36:46.741Z,17.93
2018-03-15T23:39:14.140Z,17.27
2018-03-15T23:41:41.536Z,18.30
2018-03-15T23:44:08.997Z,17.03
2018-03-15T23:46:36.393Z,17.83
2018-03-15T23:49:03.797Z,17.10
2018-03-15T23:51:31.208Z,16.90
2018-03-15T23:53:58.608Z,17.40
2018-03-15T23:56:26.005Z,15.53
2018-03-15T23:58:53.417Z,17.53
